Main page
METAR-TAF:

METAR-TAF

Airports :

Cheikh Larbi Tébessa Airport

Tébessa, Algeria

latitude: 35-29N, longitude: 008-08E, elevation: 813 m

Current weather observation

The report was made 22 minutes ago, at 20:00 UTC
Wind 4 kt from the South
Temperature 9°C
Humidity 49%
Pressure 1016 hPa
Visibility 10 km or more
Few clouds at a height of 3300 ft

METAR: DABS 012000Z 18004KT 9999 FEW033 09/M01 Q1016

Time: 21:22 (20:22 UTC)

Forecast

The report was made 3 hours and 22 minutes ago, at 17:00 UTC
Forecast valid from 01 at 18 UTC to 02 at 18 UTC
Wind 8 kt from the South/Southwest
Visibility 10 km or more
Few clouds at a height of 3300 ft
Probability 30%
from 01 at 18 UTC to 01 at 24 UTC
Few clouds at a height of 3000 ft, Towering cumulus.

TAF: DABS 011700Z 0118/0218 20008KT 9999 FEW033 PROB30 0118/0124 FEW030TCU

Weather observations and forecasts of more than 4000 airports (METAR and TAF reports).

The available stations are represented by yellow and red dots on the map.

Hover mouse over dot to see the name of the station.

Then click to see weather observations and forecasts.

To change the map : click on the green buttons with a black cross to zoom in, on the green button with a dash to zoom out, or on the green arrows for adjacent maps.


METAR-TAF: